createdAt,value
2023-02-11T00:02:39.464Z,-0.78
2023-02-11T00:06:11.639Z,-0.65
2023-02-11T00:09:19.544Z,-0.65
2023-02-11T00:12:43.667Z,-0.93
2023-02-11T00:22:47.444Z,-0.49
2023-02-11T00:25:56.660Z,-0.63
2023-02-11T00:32:26.980Z,-0.39
2023-02-11T00:35:57.455Z,-0.63
2023-02-11T00:39:35.262Z,-0.70
2023-02-11T00:46:18.472Z,-0.49
2023-02-11T00:49:49.130Z,-0.81
2023-02-11T00:56:36.940Z,-1.06
2023-02-11T01:00:09.164Z,-0.97
2023-02-11T01:03:17.748Z,-0.88
2023-02-11T01:06:48.231Z,-0.99
2023-02-11T01:09:58.092Z,-1.08
2023-02-11T01:13:28.606Z,-0.89
2023-02-11T01:16:57.424Z,-0.96
2023-02-11T01:26:54.835Z,-1.40
2023-02-11T01:30:21.476Z,-1.46
2023-02-11T01:40:17.864Z,-1.76
2023-02-11T01:43:52.553Z,-2.21
2023-02-11T01:57:37.694Z,-1.86
2023-02-11T02:25:18.470Z,-2.36
2023-02-11T02:29:05.622Z,-2.14
2023-02-11T02:33:02.161Z,-2.67
2023-02-11T02:36:13.104Z,-2.57
2023-02-11T02:39:49.300Z,-2.13
2023-02-11T02:46:22.246Z,-2.06
2023-02-11T02:49:50.696Z,-2.59
2023-02-11T02:57:25.982Z,-2.42
2023-02-11T03:01:29.649Z,-2.45
2023-02-11T03:15:07.073Z,-2.37
2023-02-11T03:18:41.625Z,-2.91
2023-02-11T03:21:54.093Z,-3.41
2023-02-11T03:25:38.053Z,-3.22
2023-02-11T03:28:52.371Z,-3.42
2023-02-11T03:32:35.407Z,-3.31
2023-02-11T03:35:51.705Z,-3.13
2023-02-11T03:39:29.904Z,-3.65
2023-02-11T03:42:54.745Z,-3.07
2023-02-11T03:46:35.608Z,-2.42
2023-02-11T03:49:52.328Z,-2.35
2023-02-11T03:53:23.150Z,-2.26
2023-02-11T03:56:44.125Z,-1.90
2023-02-11T04:03:36.220Z,-2.15
2023-02-11T04:06:44.690Z,-2.40
2023-02-11T04:10:22.060Z,-2.13
2023-02-11T04:13:32.210Z,-2.59
2023-02-11T04:16:55.262Z,-3.28
2023-02-11T04:20:24.071Z,-3.01
2023-02-11T04:23:31.995Z,-3.38
2023-02-11T04:27:06.105Z,-3.45
2023-02-11T04:30:16.041Z,-3.33
2023-02-11T04:33:47.504Z,-3.28
2023-02-11T04:36:55.073Z,-3.22
2023-02-11T04:40:23.757Z,-3.61
2023-02-11T04:43:32.088Z,-3.87
2023-02-11T04:50:03.433Z,-3.26
2023-02-11T04:53:32.367Z,-3.60
2023-02-11T04:56:40.553Z,-3.77
2023-02-11T05:00:10.679Z,-3.86
2023-02-11T05:03:18.712Z,-3.55
2023-02-11T05:06:49.905Z,-3.56
2023-02-11T05:09:57.634Z,-3.28
2023-02-11T05:13:27.084Z,-3.60
2023-02-11T05:16:35.291Z,-3.77
2023-02-11T05:23:06.738Z,-4.07
2023-02-11T05:26:35.669Z,-4.55
2023-02-11T05:29:44.281Z,-4.14
2023-02-11T05:33:13.070Z,-3.73
2023-02-11T05:39:53.269Z,-3.46
2023-02-11T05:43:03.043Z,-3.52
2023-02-11T05:46:32.770Z,-2.99
2023-02-11T05:49:40.365Z,-3.08
2023-02-11T05:53:08.839Z,-3.24
2023-02-11T05:56:16.612Z,-3.27
2023-02-11T05:59:45.185Z,-3.32
2023-02-11T06:03:00.167Z,-3.62
2023-02-11T06:06:28.983Z,-3.43
2023-02-11T06:09:40.303Z,-3.51
2023-02-11T06:13:03.355Z,-3.30
2023-02-11T06:16:36.211Z,-3.17
2023-02-11T06:19:44.365Z,-3.77
2023-02-11T06:30:34.221Z,-2.67
2023-02-11T06:34:10.916Z,-3.03
2023-02-11T07:28:38.885Z,-3.28
2023-02-11T07:31:51.817Z,-2.76
2023-02-11T07:35:43.849Z,-2.68
2023-02-11T07:38:56.169Z,-1.98
2023-02-11T07:49:31.940Z,-1.93
2023-02-11T07:56:23.250Z,-2.08
2023-02-11T08:14:30.902Z,-0.51
2023-02-11T08:18:11.372Z,-0.17
2023-02-11T09:39:47.337Z,1.27
2023-02-11T09:46:49.612Z,1.30
2023-02-11T09:50:53.533Z,1.13
2023-02-11T09:54:47.457Z,0.07
2023-02-11T09:57:58.939Z,0.35
2023-02-11T10:05:50.303Z,1.09
2023-02-11T10:09:42.610Z,1.53
2023-02-11T10:13:42.569Z,1.15
2023-02-11T10:18:02.539Z,0.86
2023-02-11T10:25:50.541Z,2.06
2023-02-11T10:29:37.331Z,2.36
2023-02-11T10:33:35.766Z,2.64
2023-02-11T11:13:16.297Z,3.33
2023-02-11T11:47:17.295Z,3.31
2023-02-11T11:58:30.285Z,3.66
2023-02-11T12:34:07.877Z,3.62
2023-02-11T12:58:12.204Z,4.64
2023-02-11T13:28:24.464Z,4.74
2023-02-11T13:58:26.440Z,5.34
2023-02-11T14:31:22.951Z,5.75
